sensor_id;sensor_type;location;lat;lon;timestamp;pressure;altitude;pressure_sealevel;temperature;humidity
54856;BME280;40748;53.168;5.800;2022-07-04T00:01:33;101953.25;;;15.53;55.05
54856;BME280;40748;53.168;5.800;2022-07-04T00:04:03;101949.22;;;15.52;55.04
54856;BME280;40748;53.168;5.800;2022-07-04T00:06:32;101946.44;;;15.48;55.47
54856;BME280;40748;53.168;5.800;2022-07-04T00:11:33;101941.79000000001;;;15.47;55.43
54856;BME280;40748;53.168;5.800;2022-07-04T00:14:03;101937.58;;;15.45;55.29
54856;BME280;40748;53.168;5.800;2022-07-04T00:16:32;101942.3;;;15.39;55.03
54856;BME280;40748;53.168;5.800;2022-07-04T00:19:03;101935.91;;;15.40;54.72
54856;BME280;40748;53.168;5.800;2022-07-04T00:26:33;101925.67;;;15.34;55.27
54856;BME280;40748;53.168;5.800;2022-07-04T00:29:02;101921.22;;;15.35;55.00
54856;BME280;40748;53.168;5.800;2022-07-04T00:31:33;101920.14;;;15.34;55.22
54856;BME280;40748;53.168;5.800;2022-07-04T00:34:03;101920.01000000001;;;15.35;55.59
54856;BME280;40748;53.168;5.800;2022-07-04T00:36:33;101912.67;;;15.33;55.98
54856;BME280;40748;53.168;5.800;2022-07-04T00:39:03;101910.58;;;15.34;55.85
54856;BME280;40748;53.168;5.800;2022-07-04T00:44:03;101909.47;;;15.32;55.74
54856;BME280;40748;53.168;5.800;2022-07-04T00:46:33;101911.0;;;15.29;55.85
54856;BME280;40748;53.168;5.800;2022-07-04T00:49:03;101902.59999999999;;;15.31;55.69
54856;BME280;40748;53.168;5.800;2022-07-04T00:51:33;101906.84;;;15.30;56.05
54856;BME280;40748;53.168;5.800;2022-07-04T00:54:03;101911.31;;;15.27;55.86
54856;BME280;40748;53.168;5.800;2022-07-04T00:56:34;101910.63;;;15.21;56.08
54856;BME280;40748;53.168;5.800;2022-07-04T01:01:33;101910.36;;;15.22;56.87
54856;BME280;40748;53.168;5.800;2022-07-04T01:04:05;101912.55;;;15.23;57.37
54856;BME280;40748;53.168;5.800;2022-07-04T01:06:33;101912.55;;;15.19;57.37
54856;BME280;40748;53.168;5.800;2022-07-04T01:09:03;101910.19;;;15.21;57.22
54856;BME280;40748;53.168;5.800;2022-07-04T01:11:33;101902.26;;;15.22;57.24
54856;BME280;40748;53.168;5.800;2022-07-04T01:14:03;101902.26;;;15.20;57.24
54856;BME280;40748;53.168;5.800;2022-07-04T01:16:33;101897.03;;;15.16;57.68
54856;BME280;40748;53.168;5.800;2022-07-04T01:19:03;101899.55;;;15.19;57.56
54856;BME280;40748;53.168;5.800;2022-07-04T01:24:03;101893.16;;;15.20;58.04
54856;BME280;40748;53.168;5.800;2022-07-04T01:26:33;101893.16;;;15.14;57.84
54856;BME280;40748;53.168;5.800;2022-07-04T01:29:03;101891.52;;;15.17;57.75
54856;BME280;40748;53.168;5.800;2022-07-04T01:31:33;101886.44;;;15.14;58.30
54856;BME280;40748;53.168;5.800;2022-07-04T01:34:03;101886.58;;;15.16;58.34
54856;BME280;40748;53.168;5.800;2022-07-04T01:36:33;101886.25;;;15.06;58.80
54856;BME280;40748;53.168;5.800;2022-07-04T01:39:03;101879.69;;;15.08;58.26
54856;BME280;40748;53.168;5.800;2022-07-04T01:41:33;101879.54999999999;;;15.09;58.84
54856;BME280;40748;53.168;5.800;2022-07-04T01:44:03;101880.02;;;15.07;58.73
54856;BME280;40748;53.168;5.800;2022-07-04T01:46:33;101877.51;;;15.06;58.79
54856;BME280;40748;53.168;5.800;2022-07-04T01:49:03;101884.09;;;15.10;58.88
54856;BME280;40748;53.168;5.800;2022-07-04T01:51:33;101884.54000000001;;;15.13;59.64
54856;BME280;40748;53.168;5.800;2022-07-04T01:54:03;101885.1;;;15.14;59.04
54856;BME280;40748;53.168;5.800;2022-07-04T01:56:33;101885.1;;;15.09;59.10
54856;BME280;40748;53.168;5.800;2022-07-04T01:59:03;101882.28;;;15.12;58.91
54856;BME280;40748;53.168;5.800;2022-07-04T02:01:33;101879.88;;;15.15;59.46
54856;BME280;40748;53.168;5.800;2022-07-04T02:04:03;101872.77;;;15.13;59.91
54856;BME280;40748;53.168;5.800;2022-07-04T02:09:03;101873.0;;;15.19;59.88
54856;BME280;40748;53.168;5.800;2022-07-04T02:11:33;101879.75;;;15.21;60.19
54856;BME280;40748;53.168;5.800;2022-07-04T02:16:33;101880.36;;;15.18;60.48
54856;BME280;40748;53.168;5.800;2022-07-04T02:19:03;101877.36;;;15.20;60.77
54856;BME280;40748;53.168;5.800;2022-07-04T02:21:33;101881.16;;;15.24;60.84
54856;BME280;40748;53.168;5.800;2022-07-04T02:24:03;101879.36;;;15.27;60.90
54856;BME280;40748;53.168;5.800;2022-07-04T02:26:33;101879.36;;;15.22;60.90
54856;BME280;40748;53.168;5.800;2022-07-04T02:29:03;101881.45;;;15.25;60.88
54856;BME280;40748;53.168;5.800;2022-07-04T02:31:33;101881.45;;;15.26;61.07
54856;BME280;40748;53.168;5.800;2022-07-04T02:34:03;101878.56;;;15.28;61.47
54856;BME280;40748;53.168;5.800;2022-07-04T02:36:33;101875.72;;;15.24;61.47
54856;BME280;40748;53.168;5.800;2022-07-04T02:39:03;101875.72;;;15.32;61.95
54856;BME280;40748;53.168;5.800;2022-07-04T02:41:33;101872.75;;;15.35;62.04
54856;BME280;40748;53.168;5.800;2022-07-04T02:44:03;101873.32;;;15.34;61.67
54856;BME280;40748;53.168;5.800;2022-07-04T02:46:33;101874.0;;;15.31;61.43
54856;BME280;40748;53.168;5.800;2022-07-04T02:49:03;101875.92;;;15.34;61.58
54856;BME280;40748;53.168;5.800;2022-07-04T02:51:33;101875.94;;;15.38;61.61
54856;BME280;40748;53.168;5.800;2022-07-04T02:54:03;101875.16;;;15.37;61.32
54856;BME280;40748;53.168;5.800;2022-07-04T02:56:33;101877.51;;;15.33;61.16
54856;BME280;40748;53.168;5.800;2022-07-04T02:59:03;101878.15000000001;;;15.34;61.01
54856;BME280;40748;53.168;5.800;2022-07-04T03:01:33;101871.93;;;15.36;60.98
54856;BME280;40748;53.168;5.800;2022-07-04T03:04:03;101869.95;;;15.37;61.52
54856;BME280;40748;53.168;5.800;2022-07-04T03:06:33;101867.53;;;15.33;61.70
54856;BME280;40748;53.168;5.800;2022-07-04T03:09:03;101867.78;;;15.35;61.30
54856;BME280;40748;53.168;5.800;2022-07-04T03:11:33;101869.72;;;15.38;61.71
54856;BME280;40748;53.168;5.800;2022-07-04T03:14:03;101869.61;;;15.36;62.08
54856;BME280;40748;53.168;5.800;2022-07-04T03:19:03;101868.84;;;15.41;61.98
54856;BME280;40748;53.168;5.800;2022-07-04T03:21:33;101864.70000000001;;;15.45;62.49
54856;BME280;40748;53.168;5.800;2022-07-04T03:24:03;101858.22;;;15.48;62.05
54856;BME280;40748;53.168;5.800;2022-07-04T03:26:33;101854.85;;;15.47;62.04
54856;BME280;40748;53.168;5.800;2022-07-04T03:29:03;101850.13;;;15.49;61.92
54856;BME280;40748;53.168;5.800;2022-07-04T03:34:03;101859.91;;;15.48;62.56
54856;BME280;40748;53.168;5.800;2022-07-04T03:36:33;101855.65000000001;;;15.44;62.28
54856;BME280;40748;53.168;5.800;2022-07-04T03:39:03;101856.04;;;15.45;62.03
54856;BME280;40748;53.168;5.800;2022-07-04T03:41:33;101847.47;;;15.44;62.25
54856;BME280;40748;53.168;5.800;2022-07-04T03:46:33;101843.47;;;15.38;62.40
54856;BME280;40748;53.168;5.800;2022-07-04T03:49:03;101843.47;;;15.42;62.40
54856;BME280;40748;53.168;5.800;2022-07-04T03:51:33;101845.54000000001;;;15.44;62.68
54856;BME280;40748;53.168;5.800;2022-07-04T03:54:03;101848.32;;;15.43;62.54
54856;BME280;40748;53.168;5.800;2022-07-04T03:56:33;101853.12;;;15.42;62.61
54856;BME280;40748;53.168;5.800;2022-07-04T03:59:03;101850.67;;;15.47;62.58
54856;BME280;40748;53.168;5.800;2022-07-04T04:01:33;101846.23;;;15.52;62.90
54856;BME280;40748;53.168;5.800;2022-07-04T04:04:03;101848.77;;;15.54;62.89
54856;BME280;40748;53.168;5.800;2022-07-04T04:06:33;101848.68000000001;;;15.53;63.39
54856;BME280;40748;53.168;5.800;2022-07-04T04:09:03;101849.25;;;15.60;63.01
54856;BME280;40748;53.168;5.800;2022-07-04T04:11:33;101853.16;;;15.65;63.30
54856;BME280;40748;53.168;5.800;2022-07-04T04:14:03;101849.26000000001;;;15.69;63.54
54856;BME280;40748;53.168;5.800;2022-07-04T04:16:33;101846.12;;;15.68;63.33
54856;BME280;40748;53.168;5.800;2022-07-04T04:19:03;101851.98000000001;;;15.78;63.39
54856;BME280;40748;53.168;5.800;2022-07-04T04:21:33;101846.84999999999;;;15.91;63.35
54856;BME280;40748;53.168;5.800;2022-07-04T04:24:03;101855.5;;;16.05;63.74
54856;BME280;40748;53.168;5.800;2022-07-04T04:26:33;101853.75;;;16.19;63.67
54856;BME280;40748;53.168;5.800;2022-07-04T04:29:03;101857.84999999999;;;16.36;63.76
54856;BME280;40748;53.168;5.800;2022-07-04T04:31:33;101857.84999999999;;;16.50;63.37
54856;BME280;40748;53.168;5.800;2022-07-04T04:34:03;101863.3;;;16.61;63.07
54856;BME280;40748;53.168;5.800;2022-07-04T04:36:33;101870.81;;;16.68;63.11
54856;BME280;40748;53.168;5.800;2022-07-04T04:39:03;101872.61;;;16.86;63.06
54856;BME280;40748;53.168;5.800;2022-07-04T04:41:33;101871.55;;;17.01;62.85
54856;BME280;40748;53.168;5.800;2022-07-04T04:44:03;101873.46;;;17.13;62.47
54856;BME280;40748;53.168;5.800;2022-07-04T04:46:33;101872.38;;;17.28;62.43
54856;BME280;40748;53.168;5.800;2022-07-04T04:49:03;101874.45;;;17.54;62.80
54856;BME280;40748;53.168;5.800;2022-07-04T04:51:33;101873.8;;;17.88;63.07
54856;BME280;40748;53.168;5.800;2022-07-04T04:54:03;101870.46;;;18.24;63.13
54856;BME280;40748;53.168;5.800;2022-07-04T04:56:33;101875.7;;;18.58;63.25
54856;BME280;40748;53.168;5.800;2022-07-04T04:59:03;101875.01999999999;;;18.99;63.11
54856;BME280;40748;53.168;5.800;2022-07-04T05:01:33;101875.41;;;19.40;62.99
54856;BME280;40748;53.168;5.800;2022-07-04T05:04:03;101880.16;;;19.79;62.56
54856;BME280;40748;53.168;5.800;2022-07-04T05:06:33;101876.45;;;20.11;62.05
54856;BME280;40748;53.168;5.800;2022-07-04T05:09:03;101875.5;;;20.55;61.98
54856;BME280;40748;53.168;5.800;2022-07-04T05:11:33;101880.61;;;20.93;61.26
54856;BME280;40748;53.168;5.800;2022-07-04T05:14:03;101886.69;;;21.23;60.01
54856;BME280;40748;53.168;5.800;2022-07-04T05:16:33;101885.33;;;21.44;59.77
54856;BME280;40748;53.168;5.800;2022-07-04T05:19:03;101884.92;;;21.56;59.16
54856;BME280;40748;53.168;5.800;2022-07-04T05:21:33;101888.11;;;21.47;58.15
54856;BME280;40748;53.168;5.800;2022-07-04T05:24:03;101892.86;;;21.26;57.20
54856;BME280;40748;53.168;5.800;2022-07-04T05:26:33;101894.44;;;20.96;56.62
54856;BME280;40748;53.168;5.800;2022-07-04T05:29:03;101897.36;;;20.78;56.54
54856;BME280;40748;53.168;5.800;2022-07-04T05:31:33;101894.72;;;20.58;56.22
54856;BME280;40748;53.168;5.800;2022-07-04T05:34:03;101893.88;;;20.42;56.18
54856;BME280;40748;53.168;5.800;2022-07-04T05:36:33;101890.91;;;20.25;56.27
54856;BME280;40748;53.168;5.800;2022-07-04T05:39:03;101889.09;;;20.19;56.71
54856;BME280;40748;53.168;5.800;2022-07-04T05:41:33;101889.09;;;20.15;56.71
54856;BME280;40748;53.168;5.800;2022-07-04T05:44:03;101896.51;;;20.13;57.04
54856;BME280;40748;53.168;5.800;2022-07-04T05:46:33;101897.89;;;20.05;57.05
54856;BME280;40748;53.168;5.800;2022-07-04T05:49:03;101895.83;;;20.03;57.28
54856;BME280;40748;53.168;5.800;2022-07-04T05:51:33;101904.0;;;20.01;57.44
54856;BME280;40748;53.168;5.800;2022-07-04T05:54:03;101903.09;;;20.00;57.67
54856;BME280;40748;53.168;5.800;2022-07-04T05:59:03;101900.92;;;20.04;58.21
54856;BME280;40748;53.168;5.800;2022-07-04T06:01:33;101902.91;;;20.02;58.38
54856;BME280;40748;53.168;5.800;2022-07-04T06:04:03;101906.26999999999;;;20.06;58.83
54856;BME280;40748;53.168;5.800;2022-07-04T06:06:33;101905.38;;;20.03;58.44
54856;BME280;40748;53.168;5.800;2022-07-04T06:09:03;101907.61;;;20.06;58.49
54856;BME280;40748;53.168;5.800;2022-07-04T06:11:33;101907.03;;;20.10;58.64
54856;BME280;40748;53.168;5.800;2022-07-04T06:14:03;101905.45;;;20.18;59.31
54856;BME280;40748;53.168;5.800;2022-07-04T06:16:33;101898.49;;;20.24;59.15
54856;BME280;40748;53.168;5.800;2022-07-04T06:19:03;101894.26;;;20.41;59.45
54856;BME280;40748;53.168;5.800;2022-07-04T06:21:33;101891.06;;;20.61;59.36
54856;BME280;40748;53.168;5.800;2022-07-04T06:24:03;101894.45;;;20.84;59.38
54856;BME280;40748;53.168;5.800;2022-07-04T06:26:33;101893.37000000001;;;21.02;59.18
54856;BME280;40748;53.168;5.800;2022-07-04T06:29:03;101895.22;;;21.34;59.25
54856;BME280;40748;53.168;5.800;2022-07-04T06:31:33;101890.93000000001;;;21.66;59.38
54856;BME280;40748;53.168;5.800;2022-07-04T06:34:03;101886.14;;;21.85;58.85
54856;BME280;40748;53.168;5.800;2022-07-04T06:36:33;101890.55;;;21.96;58.00
54856;BME280;40748;53.168;5.800;2022-07-04T06:39:03;101895.43;;;22.09;57.95
54856;BME280;40748;53.168;5.800;2022-07-04T06:41:33;101901.03;;;22.32;57.20
54856;BME280;40748;53.168;5.800;2022-07-04T06:44:03;101907.08;;;22.99;57.93
54856;BME280;40748;53.168;5.800;2022-07-04T06:46:33;101912.25;;;23.82;58.72
54856;BME280;40748;53.168;5.800;2022-07-04T06:49:03;101909.44;;;24.71;58.13
54856;BME280;40748;53.168;5.800;2022-07-04T06:51:33;101916.33;;;25.48;57.00
54856;BME280;40748;53.168;5.800;2022-07-04T06:54:03;101919.14;;;26.18;55.40
54856;BME280;40748;53.168;5.800;2022-07-04T06:56:33;101916.81999999999;;;26.97;54.40
54856;BME280;40748;53.168;5.800;2022-07-04T06:59:03;101919.96;;;27.76;52.97
54856;BME280;40748;53.168;5.800;2022-07-04T07:01:33;101927.61;;;28.37;48.99
54856;BME280;40748;53.168;5.800;2022-07-04T07:04:03;101927.61;;;28.66;48.99
54856;BME280;40748;53.168;5.800;2022-07-04T07:06:33;101933.65;;;28.74;47.21
54856;BME280;40748;53.168;5.800;2022-07-04T07:09:03;101935.44;;;28.55;45.50
54856;BME280;40748;53.168;5.800;2022-07-04T07:11:33;101931.19;;;28.36;45.01
54856;BME280;40748;53.168;5.800;2022-07-04T07:14:03;101930.66;;;28.09;44.96
54856;BME280;40748;53.168;5.800;2022-07-04T07:16:33;101925.26000000001;;;27.97;45.19
54856;BME280;40748;53.168;5.800;2022-07-04T07:19:03;101922.6;;;28.05;45.54
54856;BME280;40748;53.168;5.800;2022-07-04T07:21:33;101925.09;;;28.25;45.90
54856;BME280;40748;53.168;5.800;2022-07-04T07:24:03;101922.79999999999;;;28.65;44.95
54856;BME280;40748;53.168;5.800;2022-07-04T07:26:33;101933.33;;;28.63;45.79
54856;BME280;40748;53.168;5.800;2022-07-04T07:29:03;101931.29000000001;;;28.93;44.50
54856;BME280;40748;53.168;5.800;2022-07-04T07:31:33;101938.3;;;29.33;43.81
54856;BME280;40748;53.168;5.800;2022-07-04T07:34:03;101924.8;;;30.01;44.04
54856;BME280;40748;53.168;5.800;2022-07-04T07:36:33;101922.94;;;30.45;43.76
54856;BME280;40748;53.168;5.800;2022-07-04T07:39:03;101924.05;;;30.84;42.57
54856;BME280;40748;53.168;5.800;2022-07-04T07:41:33;101933.62;;;31.10;42.18
54856;BME280;40748;53.168;5.800;2022-07-04T07:44:03;101933.62;;;31.25;41.02
54856;BME280;40748;53.168;5.800;2022-07-04T07:46:33;101929.67;;;31.24;39.92
54856;BME280;40748;53.168;5.800;2022-07-04T07:49:03;101928.72;;;31.34;38.94
54856;BME280;40748;53.168;5.800;2022-07-04T07:51:33;101925.94;;;31.35;38.65
54856;BME280;40748;53.168;5.800;2022-07-04T07:54:03;101934.26;;;31.33;37.79
54856;BME280;40748;53.168;5.800;2022-07-04T07:56:33;101924.0;;;30.99;37.65
54856;BME280;40748;53.168;5.800;2022-07-04T07:59:03;101927.17;;;31.00;36.63
54856;BME280;40748;53.168;5.800;2022-07-04T08:01:33;101926.03;;;31.45;37.43
54856;BME280;40748;53.168;5.800;2022-07-04T08:04:03;101922.58;;;31.82;38.18
54856;BME280;40748;53.168;5.800;2022-07-04T08:06:33;101920.0;;;32.29;36.51
54856;BME280;40748;53.168;5.800;2022-07-04T08:09:03;101918.84;;;32.86;36.38
54856;BME280;40748;53.168;5.800;2022-07-04T08:11:33;101921.43;;;33.03;36.68
54856;BME280;40748;53.168;5.800;2022-07-04T08:14:03;101920.51;;;33.20;35.64
54856;BME280;40748;53.168;5.800;2022-07-04T08:16:33;101924.53;;;33.59;35.40
54856;BME280;40748;53.168;5.800;2022-07-04T08:19:03;101916.86;;;33.95;33.78
54856;BME280;40748;53.168;5.800;2022-07-04T08:21:33;101921.88;;;34.11;33.43
54856;BME280;40748;53.168;5.800;2022-07-04T08:24:03;101924.87999999999;;;34.49;32.24
54856;BME280;40748;53.168;5.800;2022-07-04T08:26:33;101924.87999999999;;;34.76;32.24
54856;BME280;40748;53.168;5.800;2022-07-04T08:29:03;101925.7;;;34.90;31.38
54856;BME280;40748;53.168;5.800;2022-07-04T08:31:33;101923.99;;;34.80;31.87
54856;BME280;40748;53.168;5.800;2022-07-04T08:34:03;101920.24;;;34.92;31.20
54856;BME280;40748;53.168;5.800;2022-07-04T08:36:33;101923.44;;;34.78;32.43
54856;BME280;40748;53.168;5.800;2022-07-04T08:39:03;101923.44;;;35.09;31.63
54856;BME280;40748;53.168;5.800;2022-07-04T08:41:35;101929.96;;;35.17;30.82
54856;BME280;40748;53.168;5.800;2022-07-04T08:44:03;101929.96;;;35.04;30.82
54856;BME280;40748;53.168;5.800;2022-07-04T08:49:22;101929.74;;;33.95;30.83
54856;BME280;40748;53.168;5.800;2022-07-04T08:51:52;101922.77;;;33.06;31.07
54856;BME280;40748;53.168;5.800;2022-07-04T08:54:21;101942.92;;;32.22;30.81
54856;BME280;40748;53.168;5.800;2022-07-04T08:56:51;101939.12;;;31.42;31.52
54856;BME280;40748;53.168;5.800;2022-07-04T08:59:21;101940.62;;;30.46;31.97
54856;BME280;40748;53.168;5.800;2022-07-04T09:01:51;101942.36;;;29.58;32.20
54856;BME280;40748;53.168;5.800;2022-07-04T09:04:21;101946.67;;;29.30;32.83
54856;BME280;40748;53.168;5.800;2022-07-04T09:06:51;101941.5;;;29.68;34.18
54856;BME280;40748;53.168;5.800;2022-07-04T09:09:21;101940.04;;;30.55;35.88
54856;BME280;40748;53.168;5.800;2022-07-04T09:11:51;101940.55;;;31.35;36.36
54856;BME280;40748;53.168;5.800;2022-07-04T09:14:21;101940.55;;;31.63;35.71
54856;BME280;40748;53.168;5.800;2022-07-04T09:16:51;101948.20999999999;;;31.29;34.70
54856;BME280;40748;53.168;5.800;2022-07-04T09:19:21;101946.6;;;30.58;33.40
54856;BME280;40748;53.168;5.800;2022-07-04T09:21:51;101946.6;;;29.84;33.40
54856;BME280;40748;53.168;5.800;2022-07-04T09:26:51;101937.13;;;29.66;34.87
54856;BME280;40748;53.168;5.800;2022-07-04T09:29:21;101939.83;;;29.89;33.90
54856;BME280;40748;53.168;5.800;2022-07-04T09:31:51;101940.92000000001;;;29.83;33.30
54856;BME280;40748;53.168;5.800;2022-07-04T09:34:21;101940.92000000001;;;29.43;32.95
54856;BME280;40748;53.168;5.800;2022-07-04T09:36:51;101948.61;;;29.48;33.65
54856;BME280;40748;53.168;5.800;2022-07-04T09:39:21;101949.11;;;29.91;34.87
54856;BME280;40748;53.168;5.800;2022-07-04T09:41:52;101946.98;;;30.62;35.39
54856;BME280;40748;53.168;5.800;2022-07-04T09:44:21;101949.51999999999;;;30.60;35.11
54856;BME280;40748;53.168;5.800;2022-07-04T09:46:51;101947.31;;;30.97;34.96
54856;BME280;40748;53.168;5.800;2022-07-04T09:49:21;101946.74;;;31.68;35.05
54856;BME280;40748;53.168;5.800;2022-07-04T09:51:51;101947.58;;;32.35;35.58
54856;BME280;40748;53.168;5.800;2022-07-04T09:54:22;101950.57;;;33.03;35.19
54856;BME280;40748;53.168;5.800;2022-07-04T09:56:51;101957.7;;;32.84;34.69
54856;BME280;40748;53.168;5.800;2022-07-04T09:59:23;101959.25;;;32.29;32.33
54856;BME280;40748;53.168;5.800;2022-07-04T10:01:51;101956.26999999999;;;32.07;31.67
54856;BME280;40748;53.168;5.800;2022-07-04T10:04:21;101953.94;;;32.21;31.92
54856;BME280;40748;53.168;5.800;2022-07-04T10:06:51;101960.11;;;32.54;31.69
54856;BME280;40748;53.168;5.800;2022-07-04T10:09:21;101956.73000000001;;;33.08;32.17
54856;BME280;40748;53.168;5.800;2022-07-04T10:11:51;101956.73000000001;;;33.41;32.17
54856;BME280;40748;53.168;5.800;2022-07-04T10:14:21;101965.95;;;33.30;31.56
54856;BME280;40748;53.168;5.800;2022-07-04T10:16:51;101965.51;;;32.85;31.08
54856;BME280;40748;53.168;5.800;2022-07-04T10:19:21;101966.99;;;32.92;29.99
54856;BME280;40748;53.168;5.800;2022-07-04T10:21:51;101963.78;;;32.89;30.76
54856;BME280;40748;53.168;5.800;2022-07-04T10:24:21;101966.15000000001;;;32.13;30.22
54856;BME280;40748;53.168;5.800;2022-07-04T10:26:51;101959.09;;;31.87;28.57
54856;BME280;40748;53.168;5.800;2022-07-04T10:29:21;101959.09;;;31.68;30.38
54856;BME280;40748;53.168;5.800;2022-07-04T10:31:51;101957.0;;;31.89;30.29
54856;BME280;40748;53.168;5.800;2022-07-04T10:34:21;101963.44;;;31.99;30.75
54856;BME280;40748;53.168;5.800;2022-07-04T10:36:51;101965.88;;;32.05;29.85
54856;BME280;40748;53.168;5.800;2022-07-04T10:39:21;101962.36;;;32.17;30.61
54856;BME280;40748;53.168;5.800;2022-07-04T10:41:55;101959.75;;;32.81;30.49
54856;BME280;40748;53.168;5.800;2022-07-04T10:44:21;101968.09;;;32.65;30.91
54856;BME280;40748;53.168;5.800;2022-07-04T10:46:51;101964.31;;;32.97;29.95
54856;BME280;40748;53.168;5.800;2022-07-04T10:49:22;101964.34000000001;;;32.79;29.27
54856;BME280;40748;53.168;5.800;2022-07-04T10:51:51;101968.39;;;32.95;27.89
54856;BME280;40748;53.168;5.800;2022-07-04T10:54:21;101963.48000000001;;;32.99;27.69
54856;BME280;40748;53.168;5.800;2022-07-04T10:56:52;101972.34;;;33.44;28.90
54856;BME280;40748;53.168;5.800;2022-07-04T10:59:22;101961.55;;;33.14;29.54
54856;BME280;40748;53.168;5.800;2022-07-04T11:01:52;101968.2;;;32.90;28.52
54856;BME280;40748;53.168;5.800;2022-07-04T11:06:51;101963.89;;;32.24;27.55
54856;BME280;40748;53.168;5.800;2022-07-04T11:09:22;101966.83;;;32.46;29.14
54856;BME280;40748;53.168;5.800;2022-07-04T11:11:51;101964.67;;;32.77;28.97
54856;BME280;40748;53.168;5.800;2022-07-04T11:16:51;101965.73;;;33.04;27.36
54856;BME280;40748;53.168;5.800;2022-07-04T11:19:21;101960.63;;;33.27;28.65
54856;BME280;40748;53.168;5.800;2022-07-04T11:21:51;101961.77;;;33.50;27.35
54856;BME280;40748;53.168;5.800;2022-07-04T11:24:21;101962.36;;;33.53;28.22
54856;BME280;40748;53.168;5.800;2022-07-04T11:26:51;101956.12;;;33.71;27.16
54856;BME280;40748;53.168;5.800;2022-07-04T11:29:21;101963.67;;;33.92;28.17
54856;BME280;40748;53.168;5.800;2022-07-04T11:31:52;101951.08;;;33.64;28.07
54856;BME280;40748;53.168;5.800;2022-07-04T11:34:21;101962.12000000001;;;33.99;27.86
54856;BME280;40748;53.168;5.800;2022-07-04T11:36:51;101962.97;;;33.66;26.05
54856;BME280;40748;53.168;5.800;2022-07-04T11:39:21;101962.97;;;33.75;26.05
54856;BME280;40748;53.168;5.800;2022-07-04T11:41:51;101955.08;;;33.39;26.68
54856;BME280;40748;53.168;5.800;2022-07-04T11:44:21;101951.23;;;33.04;26.10
54856;BME280;40748;53.168;5.800;2022-07-04T11:46:51;101951.23;;;32.92;26.10
54856;BME280;40748;53.168;5.800;2022-07-04T11:49:21;101954.8;;;32.55;25.60
54856;BME280;40748;53.168;5.800;2022-07-04T11:51:51;101952.55;;;32.45;24.83
54856;BME280;40748;53.168;5.800;2022-07-04T11:54:21;101952.55;;;32.42;26.04
54856;BME280;40748;53.168;5.800;2022-07-04T11:56:51;101947.58;;;31.68;26.74
54856;BME280;40748;53.168;5.800;2022-07-04T11:59:21;101953.68;;;31.42;25.74
54856;BME280;40748;53.168;5.800;2022-07-04T12:01:51;101953.77;;;31.51;25.09
54856;BME280;40748;53.168;5.800;2022-07-04T12:04:21;101946.1;;;30.88;26.67
54856;BME280;40748;53.168;5.800;2022-07-04T12:06:51;101951.31;;;30.76;26.84
54856;BME280;40748;53.168;5.800;2022-07-04T12:09:21;101941.76;;;30.86;26.90
54856;BME280;40748;53.168;5.800;2022-07-04T12:11:52;101941.79000000001;;;30.35;27.38
54856;BME280;40748;53.168;5.800;2022-07-04T12:14:21;101944.0;;;30.21;27.38
54856;BME280;40748;53.168;5.800;2022-07-04T12:19:21;101949.64;;;29.73;27.93
54856;BME280;40748;53.168;5.800;2022-07-04T12:21:51;101946.89;;;29.53;28.73
54856;BME280;40748;53.168;5.800;2022-07-04T12:24:21;101946.89;;;28.74;29.22
54856;BME280;40748;53.168;5.800;2022-07-04T12:26:51;101950.42;;;28.63;28.32
54856;BME280;40748;53.168;5.800;2022-07-04T12:29:21;101952.67;;;28.74;28.93
54856;BME280;40748;53.168;5.800;2022-07-04T12:31:51;101944.59000000001;;;28.05;29.20
54856;BME280;40748;53.168;5.800;2022-07-04T12:34:22;101931.55;;;27.94;29.23
54856;BME280;40748;53.168;5.800;2022-07-04T12:36:51;101933.56;;;27.86;29.64
54856;BME280;40748;53.168;5.800;2022-07-04T12:39:29;101934.83;;;27.60;30.09
54856;BME280;40748;53.168;5.800;2022-07-04T12:41:51;101934.83;;;27.32;30.09
54856;BME280;40748;53.168;5.800;2022-07-04T12:44:21;101930.19;;;27.05;30.18
54856;BME280;40748;53.168;5.800;2022-07-04T12:46:55;101924.87999999999;;;26.72;30.83
54856;BME280;40748;53.168;5.800;2022-07-04T12:49:21;101917.38;;;26.75;31.09
54856;BME280;40748;53.168;5.800;2022-07-04T12:51:51;101914.14;;;26.69;31.63
54856;BME280;40748;53.168;5.800;2022-07-04T12:54:21;101920.11;;;26.67;32.37
54856;BME280;40748;53.168;5.800;2022-07-04T12:56:51;101921.34;;;26.52;32.69
54856;BME280;40748;53.168;5.800;2022-07-04T12:59:21;101925.14;;;26.43;33.08
54856;BME280;40748;53.168;5.800;2022-07-04T13:01:51;101932.62;;;26.37;33.21
54856;BME280;40748;53.168;5.800;2022-07-04T13:04:21;101924.81;;;26.30;33.38
54856;BME280;40748;53.168;5.800;2022-07-04T13:06:51;101929.17;;;26.17;33.88
54856;BME280;40748;53.168;5.800;2022-07-04T13:09:21;101929.45999999999;;;26.08;34.01
54856;BME280;40748;53.168;5.800;2022-07-04T13:11:51;101929.45999999999;;;26.00;34.01
54856;BME280;40748;53.168;5.800;2022-07-04T13:14:21;101925.12000000001;;;25.78;34.01
54856;BME280;40748;53.168;5.800;2022-07-04T13:16:51;101929.75;;;25.82;34.43
54856;BME280;40748;53.168;5.800;2022-07-04T13:19:21;101938.95999999999;;;25.74;34.78
54856;BME280;40748;53.168;5.800;2022-07-04T13:21:51;101937.14;;;25.52;34.83
54856;BME280;40748;53.168;5.800;2022-07-04T13:24:21;101932.22;;;25.33;34.99
54856;BME280;40748;53.168;5.800;2022-07-04T13:26:51;101940.57;;;25.29;35.38
54856;BME280;40748;53.168;5.800;2022-07-04T13:29:21;101944.75;;;25.12;35.07
54856;BME280;40748;53.168;5.800;2022-07-04T13:31:51;101944.96;;;25.05;34.56
54856;BME280;40748;53.168;5.800;2022-07-04T13:34:21;101945.28;;;24.90;34.96